KAGS

Augusta Regional at Bush Field Airport

Augusta, Georgia, USA
METAR KAGS 210353Z 00000KT 10SM CLR 03/02 A3025 RMK AO2 SLP243 T00330022
Observed Flight Rules
Jan-21 @ 03:53 UTC (43 minutes ago) Visual Flight Rules
Wind Visibility Clouds
Calm 10 miles
  • Clear skies
Temperatures Readings
Current 3°C / 37°F
Dewpoint 2°C / 36°F
Humidity 93%
Altimeter 30.25" Hg
Pressure 1024.3 hPa
Elevation 44
METAR KAGS 210353Z 00000KT 10SM CLR 03/02 A3025 RMK AO2 SLP243 T00330022
Observed Flight Rules
Jan-21 @ 03:53 UTC
(43 minutes ago)
VFR
Wind Visibility
Calm 10 miles
Clouds
  • Clear skies
Temperature Dewpoint
3°C / 37°F 2°C / 36°F
Humidity Altimeter Pressure
93% 30.25" Hg 1024.3 hPa